sensor_id;sensor_type;location;lat;lon;timestamp;pressure;altitude;pressure_sealevel;temperature
68012;BMP180;54794;48.348;7.878;2023-11-18T00:01:14;99993.00;;;8.10
68012;BMP180;54794;48.348;7.878;2023-11-18T00:03:44;99997.00;;;8.10
68012;BMP180;54794;48.348;7.878;2023-11-18T00:06:15;99996.00;;;8.00
68012;BMP180;54794;48.348;7.878;2023-11-18T00:08:45;99997.00;;;7.80
68012;BMP180;54794;48.348;7.878;2023-11-18T00:11:19;100000.00;;;7.80
68012;BMP180;54794;48.348;7.878;2023-11-18T00:13:50;99997.00;;;7.80
68012;BMP180;54794;48.348;7.878;2023-11-18T00:16:17;99994.00;;;8.00
68012;BMP180;54794;48.348;7.878;2023-11-18T00:18:53;100006.00;;;7.80
68012;BMP180;54794;48.348;7.878;2023-11-18T00:21:25;99995.00;;;7.80
68012;BMP180;54794;48.348;7.878;2023-11-18T00:23:53;99995.00;;;7.80
68012;BMP180;54794;48.348;7.878;2023-11-18T00:26:28;100000.00;;;7.90
68012;BMP180;54794;48.348;7.878;2023-11-18T00:29:00;100015.00;;;7.90
68012;BMP180;54794;48.348;7.878;2023-11-18T00:31:39;100009.00;;;7.90
68012;BMP180;54794;48.348;7.878;2023-11-18T00:34:11;99999.00;;;8.10
68012;BMP180;54794;48.348;7.878;2023-11-18T00:36:41;99992.00;;;8.20
68012;BMP180;54794;48.348;7.878;2023-11-18T00:39:08;99991.00;;;8.00
68012;BMP180;54794;48.348;7.878;2023-11-18T00:41:45;99997.00;;;8.10
68012;BMP180;54794;48.348;7.878;2023-11-18T00:44:16;99993.00;;;7.90
68012;BMP180;54794;48.348;7.878;2023-11-18T00:46:45;99988.00;;;7.80
68012;BMP180;54794;48.348;7.878;2023-11-18T00:49:15;99990.00;;;7.70
68012;BMP180;54794;48.348;7.878;2023-11-18T00:51:48;99986.00;;;7.90
68012;BMP180;54794;48.348;7.878;2023-11-18T00:54:18;99982.00;;;7.60
68012;BMP180;54794;48.348;7.878;2023-11-18T00:56:50;99975.00;;;7.90
68012;BMP180;54794;48.348;7.878;2023-11-18T00:59:20;99975.00;;;7.90
68012;BMP180;54794;48.348;7.878;2023-11-18T01:01:51;99981.00;;;7.70
68012;BMP180;54794;48.348;7.878;2023-11-18T01:04:23;99978.00;;;7.80
68012;BMP180;54794;48.348;7.878;2023-11-18T01:06:52;99966.00;;;7.90
68012;BMP180;54794;48.348;7.878;2023-11-18T01:09:27;99979.00;;;7.90
68012;BMP180;54794;48.348;7.878;2023-11-18T01:12:11;99986.00;;;7.70
68012;BMP180;54794;48.348;7.878;2023-11-18T01:14:43;99992.00;;;7.90
68012;BMP180;54794;48.348;7.878;2023-11-18T01:17:12;99999.00;;;7.70
68012;BMP180;54794;48.348;7.878;2023-11-18T01:19:40;99989.00;;;7.90
68012;BMP180;54794;48.348;7.878;2023-11-18T01:22:08;99985.00;;;7.90
68012;BMP180;54794;48.348;7.878;2023-11-18T01:24:44;99993.00;;;7.80
68012;BMP180;54794;48.348;7.878;2023-11-18T01:27:17;99994.00;;;7.80
68012;BMP180;54794;48.348;7.878;2023-11-18T01:29:49;99999.00;;;7.80
68012;BMP180;54794;48.348;7.878;2023-11-18T01:32:19;99993.00;;;7.80
68012;BMP180;54794;48.348;7.878;2023-11-18T01:34:48;99993.00;;;7.80
68012;BMP180;54794;48.348;7.878;2023-11-18T01:37:19;99988.00;;;7.80
68012;BMP180;54794;48.348;7.878;2023-11-18T01:39:48;99984.00;;;7.80
68012;BMP180;54794;48.348;7.878;2023-11-18T01:42:18;99981.00;;;7.90
68012;BMP180;54794;48.348;7.878;2023-11-18T01:44:47;99979.00;;;7.70
68012;BMP180;54794;48.348;7.878;2023-11-18T01:47:17;99986.00;;;7.60
68012;BMP180;54794;48.348;7.878;2023-11-18T01:49:51;99980.00;;;7.70
68012;BMP180;54794;48.348;7.878;2023-11-18T01:52:18;99989.00;;;7.80
68012;BMP180;54794;48.348;7.878;2023-11-18T01:54:47;99997.00;;;7.60
68012;BMP180;54794;48.348;7.878;2023-11-18T01:57:17;99998.00;;;7.60
68012;BMP180;54794;48.348;7.878;2023-11-18T01:59:50;99995.00;;;7.60
68012;BMP180;54794;48.348;7.878;2023-11-18T02:02:48;99990.00;;;7.60
68012;BMP180;54794;48.348;7.878;2023-11-18T02:05:18;99983.00;;;7.60
68012;BMP180;54794;48.348;7.878;2023-11-18T02:07:48;99979.00;;;7.60
68012;BMP180;54794;48.348;7.878;2023-11-18T02:10:15;99986.00;;;7.60
68012;BMP180;54794;48.348;7.878;2023-11-18T02:13:00;99993.00;;;7.70
68012;BMP180;54794;48.348;7.878;2023-11-18T02:15:37;100002.00;;;7.70
68012;BMP180;54794;48.348;7.878;2023-11-18T02:18:08;99999.00;;;7.60
68012;BMP180;54794;48.348;7.878;2023-11-18T02:20:39;99997.00;;;7.50
68012;BMP180;54794;48.348;7.878;2023-11-18T02:23:09;100007.00;;;7.40
68012;BMP180;54794;48.348;7.878;2023-11-18T02:25:50;100004.00;;;7.60
68012;BMP180;54794;48.348;7.878;2023-11-18T02:28:24;99999.00;;;7.40
68012;BMP180;54794;48.348;7.878;2023-11-18T02:31:17;99995.00;;;7.30
68012;BMP180;54794;48.348;7.878;2023-11-18T02:34:00;99999.00;;;7.50
68012;BMP180;54794;48.348;7.878;2023-11-18T02:36:49;99993.00;;;7.30
68012;BMP180;54794;48.348;7.878;2023-11-18T02:39:41;99983.00;;;7.30
68012;BMP180;54794;48.348;7.878;2023-11-18T02:42:13;99986.00;;;7.40
68012;BMP180;54794;48.348;7.878;2023-11-18T02:44:48;99995.00;;;7.40
68012;BMP180;54794;48.348;7.878;2023-11-18T02:47:21;99997.00;;;7.10
68012;BMP180;54794;48.348;7.878;2023-11-18T02:49:54;99988.00;;;7.30
68012;BMP180;54794;48.348;7.878;2023-11-18T02:52:23;99971.00;;;7.40
68012;BMP180;54794;48.348;7.878;2023-11-18T02:54:52;99988.00;;;7.20
68012;BMP180;54794;48.348;7.878;2023-11-18T02:57:27;99983.00;;;7.20
68012;BMP180;54794;48.348;7.878;2023-11-18T02:59:54;99990.00;;;7.10
68012;BMP180;54794;48.348;7.878;2023-11-18T03:02:24;99988.00;;;7.30
68012;BMP180;54794;48.348;7.878;2023-11-18T03:04:54;99986.00;;;7.20
68012;BMP180;54794;48.348;7.878;2023-11-18T03:07:27;99971.00;;;7.30
68012;BMP180;54794;48.348;7.878;2023-11-18T03:09:56;99974.00;;;7.40
68012;BMP180;54794;48.348;7.878;2023-11-18T03:12:25;99972.00;;;7.20
68012;BMP180;54794;48.348;7.878;2023-11-18T03:15:01;99977.00;;;7.20
68012;BMP180;54794;48.348;7.878;2023-11-18T03:17:31;99974.00;;;7.30
68012;BMP180;54794;48.348;7.878;2023-11-18T03:19:59;99984.00;;;7.00
68012;BMP180;54794;48.348;7.878;2023-11-18T03:22:28;99977.00;;;7.10
68012;BMP180;54794;48.348;7.878;2023-11-18T03:25:00;99980.00;;;7.00
68012;BMP180;54794;48.348;7.878;2023-11-18T03:27:27;99989.00;;;6.90
68012;BMP180;54794;48.348;7.878;2023-11-18T03:29:59;100008.00;;;7.00
68012;BMP180;54794;48.348;7.878;2023-11-18T03:32:29;100002.00;;;7.10
68012;BMP180;54794;48.348;7.878;2023-11-18T03:35:02;99995.00;;;7.10
68012;BMP180;54794;48.348;7.878;2023-11-18T03:37:38;99986.00;;;7.10
68012;BMP180;54794;48.348;7.878;2023-11-18T03:40:11;99988.00;;;7.00
68012;BMP180;54794;48.348;7.878;2023-11-18T03:42:42;99988.00;;;6.80
68012;BMP180;54794;48.348;7.878;2023-11-18T03:45:10;99983.00;;;7.00
68012;BMP180;54794;48.348;7.878;2023-11-18T03:47:37;99982.00;;;7.00
68012;BMP180;54794;48.348;7.878;2023-11-18T03:50:09;99986.00;;;7.00
68012;BMP180;54794;48.348;7.878;2023-11-18T03:52:39;99976.00;;;6.80
68012;BMP180;54794;48.348;7.878;2023-11-18T03:55:08;99975.00;;;6.80
68012;BMP180;54794;48.348;7.878;2023-11-18T03:57:37;99975.00;;;6.80
68012;BMP180;54794;48.348;7.878;2023-11-18T04:00:05;99977.00;;;7.00
68012;BMP180;54794;48.348;7.878;2023-11-18T04:02:35;99993.00;;;6.80
68012;BMP180;54794;48.348;7.878;2023-11-18T04:05:03;99987.00;;;6.90
68012;BMP180;54794;48.348;7.878;2023-11-18T04:07:34;99989.00;;;6.80
68012;BMP180;54794;48.348;7.878;2023-11-18T04:10:01;99990.00;;;6.80
68012;BMP180;54794;48.348;7.878;2023-11-18T04:12:28;99998.00;;;6.80
68012;BMP180;54794;48.348;7.878;2023-11-18T04:14:57;99998.00;;;6.70
68012;BMP180;54794;48.348;7.878;2023-11-18T04:17:27;100000.00;;;6.70
68012;BMP180;54794;48.348;7.878;2023-11-18T04:19:55;100010.00;;;6.80
68012;BMP180;54794;48.348;7.878;2023-11-18T04:22:25;99998.00;;;6.70
68012;BMP180;54794;48.348;7.878;2023-11-18T04:24:55;100012.00;;;6.70
68012;BMP180;54794;48.348;7.878;2023-11-18T04:27:22;100015.00;;;6.70
68012;BMP180;54794;48.348;7.878;2023-11-18T04:29:50;100016.00;;;6.80
68012;BMP180;54794;48.348;7.878;2023-11-18T04:32:20;100001.00;;;6.80
68012;BMP180;54794;48.348;7.878;2023-11-18T04:34:49;100003.00;;;6.60
68012;BMP180;54794;48.348;7.878;2023-11-18T04:37:18;99999.00;;;6.60
68012;BMP180;54794;48.348;7.878;2023-11-18T04:39:47;99992.00;;;6.50
68012;BMP180;54794;48.348;7.878;2023-11-18T04:42:16;99987.00;;;6.50
68012;BMP180;54794;48.348;7.878;2023-11-18T04:44:43;99982.00;;;6.40
68012;BMP180;54794;48.348;7.878;2023-11-18T04:47:10;99975.00;;;6.60
68012;BMP180;54794;48.348;7.878;2023-11-18T04:49:38;99977.00;;;6.60
68012;BMP180;54794;48.348;7.878;2023-11-18T04:52:12;99970.00;;;6.50
68012;BMP180;54794;48.348;7.878;2023-11-18T04:54:39;99954.00;;;6.50
68012;BMP180;54794;48.348;7.878;2023-11-18T04:57:09;99961.00;;;6.60
68012;BMP180;54794;48.348;7.878;2023-11-18T04:59:36;99955.00;;;6.50
68012;BMP180;54794;48.348;7.878;2023-11-18T05:02:07;99956.00;;;6.40
68012;BMP180;54794;48.348;7.878;2023-11-18T05:04:37;99955.00;;;6.50
68012;BMP180;54794;48.348;7.878;2023-11-18T05:07:07;99965.00;;;6.40
68012;BMP180;54794;48.348;7.878;2023-11-18T05:09:34;99951.00;;;6.30
68012;BMP180;54794;48.348;7.878;2023-11-18T05:12:01;99959.00;;;6.50
68012;BMP180;54794;48.348;7.878;2023-11-18T05:14:29;99952.00;;;6.60
68012;BMP180;54794;48.348;7.878;2023-11-18T05:16:56;99965.00;;;6.50
68012;BMP180;54794;48.348;7.878;2023-11-18T05:19:23;99951.00;;;6.40
68012;BMP180;54794;48.348;7.878;2023-11-18T05:21:50;99954.00;;;6.40
68012;BMP180;54794;48.348;7.878;2023-11-18T05:24:19;99939.00;;;6.50
68012;BMP180;54794;48.348;7.878;2023-11-18T05:26:49;99948.00;;;6.40
68012;BMP180;54794;48.348;7.878;2023-11-18T05:29:16;99951.00;;;6.40
68012;BMP180;54794;48.348;7.878;2023-11-18T05:31:43;99943.00;;;6.20
68012;BMP180;54794;48.348;7.878;2023-11-18T05:34:16;99944.00;;;6.30
68012;BMP180;54794;48.348;7.878;2023-11-18T05:36:50;99947.00;;;6.30
68012;BMP180;54794;48.348;7.878;2023-11-18T05:39:23;99935.00;;;6.30
68012;BMP180;54794;48.348;7.878;2023-11-18T05:41:54;99943.00;;;6.30
68012;BMP180;54794;48.348;7.878;2023-11-18T05:44:25;99941.00;;;6.30
68012;BMP180;54794;48.348;7.878;2023-11-18T05:47:00;99950.00;;;6.30
68012;BMP180;54794;48.348;7.878;2023-11-18T05:49:28;99929.00;;;6.30
68012;BMP180;54794;48.348;7.878;2023-11-18T05:51:57;99940.00;;;6.30
68012;BMP180;54794;48.348;7.878;2023-11-18T05:54:24;99940.00;;;6.30
68012;BMP180;54794;48.348;7.878;2023-11-18T05:56:51;99931.00;;;6.30
68012;BMP180;54794;48.348;7.878;2023-11-18T05:59:25;99937.00;;;6.30
68012;BMP180;54794;48.348;7.878;2023-11-18T06:01:53;99939.00;;;6.30
68012;BMP180;54794;48.348;7.878;2023-11-18T06:04:21;99937.00;;;6.50
68012;BMP180;54794;48.348;7.878;2023-11-18T06:06:48;99933.00;;;6.20
68012;BMP180;54794;48.348;7.878;2023-11-18T06:09:15;99943.00;;;6.40
68012;BMP180;54794;48.348;7.878;2023-11-18T06:11:50;99936.00;;;6.50
68012;BMP180;54794;48.348;7.878;2023-11-18T06:14:17;99944.00;;;6.40
68012;BMP180;54794;48.348;7.878;2023-11-18T06:16:48;99933.00;;;6.40
68012;BMP180;54794;48.348;7.878;2023-11-18T06:19:17;99957.00;;;6.40
68012;BMP180;54794;48.348;7.878;2023-11-18T06:21:45;99952.00;;;6.50
68012;BMP180;54794;48.348;7.878;2023-11-18T06:24:12;99950.00;;;6.40
68012;BMP180;54794;48.348;7.878;2023-11-18T06:26:41;99943.00;;;6.30
68012;BMP180;54794;48.348;7.878;2023-11-18T06:29:08;99944.00;;;6.50
68012;BMP180;54794;48.348;7.878;2023-11-18T06:31:35;99946.00;;;6.70
68012;BMP180;54794;48.348;7.878;2023-11-18T06:34:02;99933.00;;;6.70
68012;BMP180;54794;48.348;7.878;2023-11-18T06:36:35;99941.00;;;6.60
68012;BMP180;54794;48.348;7.878;2023-11-18T06:39:15;99938.00;;;6.50
68012;BMP180;54794;48.348;7.878;2023-11-18T06:41:43;99931.00;;;6.70
68012;BMP180;54794;48.348;7.878;2023-11-18T06:44:16;99933.00;;;6.70
68012;BMP180;54794;48.348;7.878;2023-11-18T06:46:47;99941.00;;;6.60
68012;BMP180;54794;48.348;7.878;2023-11-18T06:49:15;99934.00;;;6.50
68012;BMP180;54794;48.348;7.878;2023-11-18T06:51:43;99933.00;;;6.70
68012;BMP180;54794;48.348;7.878;2023-11-18T06:54:10;99939.00;;;6.70
68012;BMP180;54794;48.348;7.878;2023-11-18T06:56:40;99939.00;;;6.60
68012;BMP180;54794;48.348;7.878;2023-11-18T06:59:13;99944.00;;;6.50
68012;BMP180;54794;48.348;7.878;2023-11-18T07:01:43;99940.00;;;6.60
68012;BMP180;54794;48.348;7.878;2023-11-18T07:04:15;99949.00;;;6.60
68012;BMP180;54794;48.348;7.878;2023-11-18T07:06:45;99958.00;;;6.60
68012;BMP180;54794;48.348;7.878;2023-11-18T07:09:15;99950.00;;;6.70
68012;BMP180;54794;48.348;7.878;2023-11-18T07:11:48;99962.00;;;6.70
68012;BMP180;54794;48.348;7.878;2023-11-18T07:14:15;99955.00;;;6.80
68012;BMP180;54794;48.348;7.878;2023-11-18T07:16:44;99952.00;;;6.80
68012;BMP180;54794;48.348;7.878;2023-11-18T07:19:15;99944.00;;;6.90
68012;BMP180;54794;48.348;7.878;2023-11-18T07:21:48;99958.00;;;6.90
68012;BMP180;54794;48.348;7.878;2023-11-18T07:24:16;99948.00;;;6.90
68012;BMP180;54794;48.348;7.878;2023-11-18T07:26:45;99948.00;;;7.00
68012;BMP180;54794;48.348;7.878;2023-11-18T07:29:12;99945.00;;;7.00
68012;BMP180;54794;48.348;7.878;2023-11-18T07:31:38;99946.00;;;7.10
68012;BMP180;54794;48.348;7.878;2023-11-18T07:34:06;99958.00;;;7.10
68012;BMP180;54794;48.348;7.878;2023-11-18T07:36:33;99952.00;;;7.10
68012;BMP180;54794;48.348;7.878;2023-11-18T07:39:00;99960.00;;;7.10
68012;BMP180;54794;48.348;7.878;2023-11-18T07:41:33;99953.00;;;7.20
68012;BMP180;54794;48.348;7.878;2023-11-18T07:44:00;99955.00;;;7.10
68012;BMP180;54794;48.348;7.878;2023-11-18T07:46:28;99940.00;;;7.20
68012;BMP180;54794;48.348;7.878;2023-11-18T07:48:58;99931.00;;;7.10
68012;BMP180;54794;48.348;7.878;2023-11-18T07:51:25;99931.00;;;7.10
68012;BMP180;54794;48.348;7.878;2023-11-18T07:53:54;99931.00;;;7.00
68012;BMP180;54794;48.348;7.878;2023-11-18T07:56:21;99951.00;;;7.00
68012;BMP180;54794;48.348;7.878;2023-11-18T07:58:50;99949.00;;;7.10
68012;BMP180;54794;48.348;7.878;2023-11-18T08:01:19;99944.00;;;7.10
68012;BMP180;54794;48.348;7.878;2023-11-18T08:03:48;99957.00;;;7.10
68012;BMP180;54794;48.348;7.878;2023-11-18T08:06:17;99956.00;;;7.20
68012;BMP180;54794;48.348;7.878;2023-11-18T08:08:44;99947.00;;;7.30
68012;BMP180;54794;48.348;7.878;2023-11-18T08:11:12;99937.00;;;7.40
68012;BMP180;54794;48.348;7.878;2023-11-18T08:13:42;99935.00;;;7.40
68012;BMP180;54794;48.348;7.878;2023-11-18T08:16:10;99927.00;;;7.50
68012;BMP180;54794;48.348;7.878;2023-11-18T08:18:38;99923.00;;;7.40
68012;BMP180;54794;48.348;7.878;2023-11-18T08:21:05;99918.00;;;7.60
68012;BMP180;54794;48.348;7.878;2023-11-18T08:23:34;99918.00;;;7.70
68012;BMP180;54794;48.348;7.878;2023-11-18T08:26:04;99910.00;;;7.80
68012;BMP180;54794;48.348;7.878;2023-11-18T08:28:32;99912.00;;;7.80
68012;BMP180;54794;48.348;7.878;2023-11-18T08:30:59;99921.00;;;7.60
68012;BMP180;54794;48.348;7.878;2023-11-18T08:33:27;99920.00;;;7.80
68012;BMP180;54794;48.348;7.878;2023-11-18T08:35:55;99918.00;;;7.80
68012;BMP180;54794;48.348;7.878;2023-11-18T08:38:23;99917.00;;;7.70
68012;BMP180;54794;48.348;7.878;2023-11-18T08:40:51;99922.00;;;7.70
68012;BMP180;54794;48.348;7.878;2023-11-18T08:43:19;99914.00;;;7.80
68012;BMP180;54794;48.348;7.878;2023-11-18T08:45:47;99917.00;;;7.80
68012;BMP180;54794;48.348;7.878;2023-11-18T08:48:16;99913.00;;;7.80
68012;BMP180;54794;48.348;7.878;2023-11-18T08:50:44;99913.00;;;7.80
68012;BMP180;54794;48.348;7.878;2023-11-18T08:53:11;99916.00;;;8.00
68012;BMP180;54794;48.348;7.878;2023-11-18T08:55:39;99894.00;;;8.10
68012;BMP180;54794;48.348;7.878;2023-11-18T08:58:09;99892.00;;;8.00
68012;BMP180;54794;48.348;7.878;2023-11-18T09:00:52;99900.00;;;7.90
68012;BMP180;54794;48.348;7.878;2023-11-18T09:03:24;99888.00;;;7.90
68012;BMP180;54794;48.348;7.878;2023-11-18T09:05:56;99886.00;;;8.00
68012;BMP180;54794;48.348;7.878;2023-11-18T09:08:37;99891.00;;;8.00
68012;BMP180;54794;48.348;7.878;2023-11-18T09:11:12;99895.00;;;8.00
68012;BMP180;54794;48.348;7.878;2023-11-18T09:13:46;99894.00;;;8.10
68012;BMP180;54794;48.348;7.878;2023-11-18T09:16:16;99889.00;;;8.20
68012;BMP180;54794;48.348;7.878;2023-11-18T09:18:44;99894.00;;;8.40
68012;BMP180;54794;48.348;7.878;2023-11-18T09:21:14;99908.00;;;8.60
68012;BMP180;54794;48.348;7.878;2023-11-18T09:23:43;99910.00;;;8.60
68012;BMP180;54794;48.348;7.878;2023-11-18T09:26:11;99908.00;;;8.60
68012;BMP180;54794;48.348;7.878;2023-11-18T09:28:38;99893.00;;;8.80
68012;BMP180;54794;48.348;7.878;2023-11-18T09:31:07;99890.00;;;8.80
68012;BMP180;54794;48.348;7.878;2023-11-18T09:33:41;99902.00;;;8.80
68012;BMP180;54794;48.348;7.878;2023-11-18T09:36:12;99902.00;;;8.80
68012;BMP180;54794;48.348;7.878;2023-11-18T09:38:40;99917.00;;;8.80
68012;BMP180;54794;48.348;7.878;2023-11-18T09:41:10;99908.00;;;8.70
68012;BMP180;54794;48.348;7.878;2023-11-18T09:43:39;99916.00;;;8.80
68012;BMP180;54794;48.348;7.878;2023-11-18T09:46:12;99911.00;;;8.70
68012;BMP180;54794;48.348;7.878;2023-11-18T09:48:49;99897.00;;;8.70
68012;BMP180;54794;48.348;7.878;2023-11-18T09:51:30;99897.00;;;8.80
68012;BMP180;54794;48.348;7.878;2023-11-18T09:54:01;99907.00;;;8.70
68012;BMP180;54794;48.348;7.878;2023-11-18T09:57:05;99917.00;;;8.80
68012;BMP180;54794;48.348;7.878;2023-11-18T09:59:52;99929.00;;;8.80
68012;BMP180;54794;48.348;7.878;2023-11-18T10:02:25;99934.00;;;8.90
68012;BMP180;54794;48.348;7.878;2023-11-18T10:04:57;99934.00;;;9.00
68012;BMP180;54794;48.348;7.878;2023-11-18T10:07:26;99934.00;;;9.20
68012;BMP180;54794;48.348;7.878;2023-11-18T10:09:54;99933.00;;;9.10
68012;BMP180;54794;48.348;7.878;2023-11-18T10:12:24;99932.00;;;9.20
68012;BMP180;54794;48.348;7.878;2023-11-18T10:14:53;99927.00;;;9.30
68012;BMP180;54794;48.348;7.878;2023-11-18T10:17:22;99925.00;;;9.30
68012;BMP180;54794;48.348;7.878;2023-11-18T10:19:58;99931.00;;;9.20
68012;BMP180;54794;48.348;7.878;2023-11-18T10:22:39;99926.00;;;9.20
68012;BMP180;54794;48.348;7.878;2023-11-18T10:25:07;99932.00;;;9.30
68012;BMP180;54794;48.348;7.878;2023-11-18T10:27:34;99915.00;;;9.30
68012;BMP180;54794;48.348;7.878;2023-11-18T10:30:04;99923.00;;;9.60
68012;BMP180;54794;48.348;7.878;2023-11-18T10:32:33;99916.00;;;9.40
68012;BMP180;54794;48.348;7.878;2023-11-18T10:35:06;99922.00;;;9.40
68012;BMP180;54794;48.348;7.878;2023-11-18T10:37:35;99931.00;;;9.60
68012;BMP180;54794;48.348;7.878;2023-11-18T10:40:09;99918.00;;;9.60
68012;BMP180;54794;48.348;7.878;2023-11-18T10:42:40;99918.00;;;9.50
68012;BMP180;54794;48.348;7.878;2023-11-18T10:45:09;99923.00;;;9.60
68012;BMP180;54794;48.348;7.878;2023-11-18T10:47:42;99922.00;;;9.70
68012;BMP180;54794;48.348;7.878;2023-11-18T10:50:09;99922.00;;;9.70
68012;BMP180;54794;48.348;7.878;2023-11-18T10:52:37;99916.00;;;9.60
68012;BMP180;54794;48.348;7.878;2023-11-18T10:55:09;99926.00;;;9.70
68012;BMP180;54794;48.348;7.878;2023-11-18T10:57:40;99917.00;;;9.80
68012;BMP180;54794;48.348;7.878;2023-11-18T11:00:10;99912.00;;;9.90
68012;BMP180;54794;48.348;7.878;2023-11-18T11:02:41;99909.00;;;9.90
68012;BMP180;54794;48.348;7.878;2023-11-18T11:05:09;99907.00;;;9.80
68012;BMP180;54794;48.348;7.878;2023-11-18T11:07:48;99915.00;;;9.90
68012;BMP180;54794;48.348;7.878;2023-11-18T11:10:16;99909.00;;;9.90
68012;BMP180;54794;48.348;7.878;2023-11-18T11:12:50;99890.00;;;9.90
68012;BMP180;54794;48.348;7.878;2023-11-18T11:15:29;99899.00;;;9.90
68012;BMP180;54794;48.348;7.878;2023-11-18T11:18:12;99885.00;;;9.90
68012;BMP180;54794;48.348;7.878;2023-11-18T11:21:03;99884.00;;;9.90
68012;BMP180;54794;48.348;7.878;2023-11-18T11:24:01;99878.00;;;9.80
68012;BMP180;54794;48.348;7.878;2023-11-18T11:26:57;99887.00;;;9.70
68012;BMP180;54794;48.348;7.878;2023-11-18T11:29:42;99868.00;;;9.60
68012;BMP180;54794;48.348;7.878;2023-11-18T11:32:34;99862.00;;;9.70
68012;BMP180;54794;48.348;7.878;2023-11-18T11:35:14;99852.00;;;9.70
68012;BMP180;54794;48.348;7.878;2023-11-18T11:37:46;99848.00;;;9.60
68012;BMP180;54794;48.348;7.878;2023-11-18T11:40:14;99845.00;;;9.60
68012;BMP180;54794;48.348;7.878;2023-11-18T11:42:50;99828.00;;;9.50
68012;BMP180;54794;48.348;7.878;2023-11-18T11:45:24;99820.00;;;9.50
68012;BMP180;54794;48.348;7.878;2023-11-18T11:47:58;99828.00;;;9.50
68012;BMP180;54794;48.348;7.878;2023-11-18T11:54:18;99808.00;;;9.50
68012;BMP180;54794;48.348;7.878;2023-11-18T11:56:50;99824.00;;;9.50
68012;BMP180;54794;48.348;7.878;2023-11-18T12:02:14;99824.00;;;9.50
68012;BMP180;54794;48.348;7.878;2023-11-18T12:04:49;99823.00;;;9.60
68012;BMP180;54794;48.348;7.878;2023-11-18T12:07:21;99813.00;;;9.50
68012;BMP180;54794;48.348;7.878;2023-11-18T12:09:50;99812.00;;;9.40
68012;BMP180;54794;48.348;7.878;2023-11-18T12:12:22;99812.00;;;9.30
68012;BMP180;54794;48.348;7.878;2023-11-18T12:14:54;99822.00;;;9.50
68012;BMP180;54794;48.348;7.878;2023-11-18T12:17:25;99823.00;;;9.50
68012;BMP180;54794;48.348;7.878;2023-11-18T12:19:59;99813.00;;;9.70
68012;BMP180;54794;48.348;7.878;2023-11-18T12:23:03;99801.00;;;9.50
68012;BMP180;54794;48.348;7.878;2023-11-18T12:25:42;99802.00;;;9.60
68012;BMP180;54794;48.348;7.878;2023-11-18T12:28:15;99798.00;;;9.60
68012;BMP180;54794;48.348;7.878;2023-11-18T12:30:44;99791.00;;;9.50
68012;BMP180;54794;48.348;7.878;2023-11-18T12:33:25;99784.00;;;9.60
68012;BMP180;54794;48.348;7.878;2023-11-18T12:36:56;99785.00;;;9.60
68012;BMP180;54794;48.348;7.878;2023-11-18T12:48:36;99777.00;;;9.80
68012;BMP180;54794;48.348;7.878;2023-11-18T12:51:06;99764.00;;;9.80
68012;BMP180;54794;48.348;7.878;2023-11-18T12:53:38;99763.00;;;9.90
68012;BMP180;54794;48.348;7.878;2023-11-18T12:56:05;99757.00;;;9.90
68012;BMP180;54794;48.348;7.878;2023-11-18T12:58:32;99765.00;;;9.60
68012;BMP180;54794;48.348;7.878;2023-11-18T13:01:00;99760.00;;;9.80
68012;BMP180;54794;48.348;7.878;2023-11-18T13:03:29;99751.00;;;9.70
68012;BMP180;54794;48.348;7.878;2023-11-18T13:06:06;99753.00;;;10.00
68012;BMP180;54794;48.348;7.878;2023-11-18T13:08:33;99739.00;;;10.00
68012;BMP180;54794;48.348;7.878;2023-11-18T13:11:00;99728.00;;;10.00
68012;BMP180;54794;48.348;7.878;2023-11-18T13:13:34;99726.00;;;10.20
68012;BMP180;54794;48.348;7.878;2023-11-18T13:16:03;99711.00;;;10.20
68012;BMP180;54794;48.348;7.878;2023-11-18T13:18:41;99694.00;;;10.20
68012;BMP180;54794;48.348;7.878;2023-11-18T13:21:08;99686.00;;;10.10
68012;BMP180;54794;48.348;7.878;2023-11-18T13:23:39;99689.00;;;10.20
68012;BMP180;54794;48.348;7.878;2023-11-18T13:26:05;99680.00;;;10.30
68012;BMP180;54794;48.348;7.878;2023-11-18T13:28:33;99676.00;;;10.10
68012;BMP180;54794;48.348;7.878;2023-11-18T13:31:00;99666.00;;;9.80
68012;BMP180;54794;48.348;7.878;2023-11-18T13:33:30;99672.00;;;9.90
68012;BMP180;54794;48.348;7.878;2023-11-18T13:35:58;99668.00;;;10.00
68012;BMP180;54794;48.348;7.878;2023-11-18T13:38:26;99661.00;;;10.10
68012;BMP180;54794;48.348;7.878;2023-11-18T13:40:53;99645.00;;;10.20
68012;BMP180;54794;48.348;7.878;2023-11-18T13:43:20;99646.00;;;10.30
68012;BMP180;54794;48.348;7.878;2023-11-18T13:45:57;99636.00;;;10.20
68012;BMP180;54794;48.348;7.878;2023-11-18T13:48:27;99632.00;;;10.30
68012;BMP180;54794;48.348;7.878;2023-11-18T13:50:55;99630.00;;;10.20
68012;BMP180;54794;48.348;7.878;2023-11-18T13:53:22;99628.00;;;10.30
68012;BMP180;54794;48.348;7.878;2023-11-18T13:55:52;99628.00;;;10.30
68012;BMP180;54794;48.348;7.878;2023-11-18T13:58:20;99614.00;;;10.30
68012;BMP180;54794;48.348;7.878;2023-11-18T14:00:49;99605.00;;;10.00
68012;BMP180;54794;48.348;7.878;2023-11-18T14:03:16;99608.00;;;10.20
68012;BMP180;54794;48.348;7.878;2023-11-18T14:05:43;99616.00;;;10.10
68012;BMP180;54794;48.348;7.878;2023-11-18T14:08:18;99614.00;;;10.10
68012;BMP180;54794;48.348;7.878;2023-11-18T14:10:46;99607.00;;;10.10
68012;BMP180;54794;48.348;7.878;2023-11-18T14:13:21;99597.00;;;10.30
68012;BMP180;54794;48.348;7.878;2023-11-18T14:15:49;99581.00;;;10.20
68012;BMP180;54794;48.348;7.878;2023-11-18T14:18:24;99578.00;;;10.20
68012;BMP180;54794;48.348;7.878;2023-11-18T14:20:57;99552.00;;;10.10
68012;BMP180;54794;48.348;7.878;2023-11-18T14:23:24;99548.00;;;10.10
68012;BMP180;54794;48.348;7.878;2023-11-18T14:25:55;99553.00;;;10.20
68012;BMP180;54794;48.348;7.878;2023-11-18T14:28:22;99542.00;;;10.20
68012;BMP180;54794;48.348;7.878;2023-11-18T14:30:57;99554.00;;;10.10
68012;BMP180;54794;48.348;7.878;2023-11-18T14:33:27;99550.00;;;10.00
68012;BMP180;54794;48.348;7.878;2023-11-18T14:35:54;99543.00;;;10.20
68012;BMP180;54794;48.348;7.878;2023-11-18T14:38:23;99552.00;;;10.30
68012;BMP180;54794;48.348;7.878;2023-11-18T14:40:53;99571.00;;;10.20
68012;BMP180;54794;48.348;7.878;2023-11-18T14:43:25;99580.00;;;10.20
68012;BMP180;54794;48.348;7.878;2023-11-18T14:45:57;99572.00;;;10.20
68012;BMP180;54794;48.348;7.878;2023-11-18T14:48:25;99584.00;;;10.40
68012;BMP180;54794;48.348;7.878;2023-11-18T14:50:52;99584.00;;;10.30
68012;BMP180;54794;48.348;7.878;2023-11-18T14:53:24;99590.00;;;10.40
68012;BMP180;54794;48.348;7.878;2023-11-18T14:56:24;99596.00;;;10.40
68012;BMP180;54794;48.348;7.878;2023-11-18T14:58:55;99589.00;;;10.40